Time;durP1;ratioP1;P1;durP2;ratioP2;P2;SDS_P1;SDS_P2;PMS_P1;PMS_P2;Temp;Humidity;BMP_temperature;BMP_pressure;BME280_temperature;BME280_humidity;BME280_pressure;Samples;Min_cycle;Max_cycle;Signal;HPM_P1;HPM_P2
2022/12/13 00:01:49;;;;;;;;;32.50;31.25;;;;;-2.31;73.91;99893.53;5079940;28;45244;-87
2022/12/13 00:04:15;;;;;;;;;30.50;25.25;;;;;-2.89;73.61;99790.50;5050688;28;45466;-87
2022/12/13 00:06:41;;;;;;;;;41.50;36.75;;;;;-2.34;73.54;99891.78;5049923;28;45414;-88
2022/12/13 00:09:07;;;;;;;;;40.50;28.25;;;;;-3.77;73.48;99667.03;5049177;28;46909;-88
2022/12/13 00:11:32;;;;;;;;;33.75;29.50;;;;;-2.39;73.38;99895.09;5078227;28;45892;-87
2022/12/13 00:13:57;;;;;;;;;35.25;25.00;;;;;-3.35;73.01;99716.22;5057484;28;45390;-87
2022/12/13 00:16:25;;;;;;;;;49.00;34.25;;;;;-2.33;73.07;99870.19;5056856;28;45261;-88
2022/12/13 00:18:56;;;;;;;;;37.25;27.00;;;;;-3.47;73.60;99689.25;5043845;28;47084;-87
2022/12/13 00:21:25;;;;;;;;;33.25;28.25;;;;;-2.90;73.13;99786.19;5077466;28;45394;-87
2022/12/13 00:23:51;;;;;;;;;30.25;27.25;;;;;-2.35;73.48;99865.84;5080149;28;45386;-87
2022/12/13 00:26:19;;;;;;;;;19.25;17.25;;;;;-2.37;73.18;99863.22;5098469;28;45469;-87
2022/12/13 00:28:48;;;;;;;;;34.25;26.00;;;;;-2.84;72.96;99782.84;5081649;28;45507;-87
2022/12/13 00:31:14;;;;;;;;;31.25;24.25;;;;;-3.17;73.01;99720.91;5080915;28;45540;-87
2022/12/13 00:33:39;;;;;;;;;37.25;28.50;;;;;-2.86;73.17;99779.34;5087758;28;45385;-87
2022/12/13 00:36:06;;;;;;;;;38.25;27.50;;;;;-2.55;73.09;99827.47;5084365;28;45366;-87
2022/12/13 00:38:34;;;;;;;;;37.00;30.25;;;;;-2.87;73.40;99773.31;5079181;28;46127;-87
2022/12/13 00:41:18;;;;;;;;;29.75;22.75;;;;;-2.89;73.17;99779.28;5077475;28;45534;-86
2022/12/13 00:43:44;;;;;;;;;38.25;26.50;;;;;-3.20;73.04;99724.31;5076967;28;45441;-87
2022/12/13 00:46:15;;;;;;;;;28.00;24.00;;;;;-2.53;73.50;99837.84;5078874;28;45577;-86
2022/12/13 00:48:42;;;;;;;;;29.25;25.75;;;;;-2.68;72.94;99805.63;5068445;28;47359;-87
2022/12/13 00:51:10;;;;;;;;;31.75;26.75;;;;;-2.44;72.82;99856.16;5082277;28;45422;-87
2022/12/13 00:53:36;;;;;;;;;31.00;24.25;;;;;-2.92;73.27;99789.56;5058716;28;45500;-86
2022/12/13 00:56:02;;;;;;;;;33.75;30.25;;;;;-2.64;73.13;99818.63;5057895;28;45590;-87
2022/12/13 00:58:27;;;;;;;;;37.00;29.50;;;;;-2.90;73.00;99769.78;5076303;28;45518;-88
2022/12/13 01:01:01;;;;;;;;;34.50;28.50;;;;;-3.45;72.99;99677.22;5081918;28;45266;-87
2022/12/13 01:03:26;;;;;;;;;27.25;22.75;;;;;-3.11;73.07;99745.22;5064210;28;45383;-87
2022/12/13 01:05:52;;;;;;;;;26.50;20.00;;;;;-3.58;73.22;99667.47;5078255;28;45358;-87
2022/12/13 01:08:17;;;;;;;;;33.00;23.50;;;;;-2.47;73.05;99853.50;5075551;28;46286;-87
2022/12/13 01:10:44;;;;;;;;;24.00;20.25;;;;;-2.45;72.92;99850.94;5076053;28;45363;-87
2022/12/13 01:13:09;;;;;;;;;25.25;22.50;;;;;-3.24;72.86;99717.34;5060284;28;45543;-87
2022/12/13 01:15:42;;;;;;;;;27.25;23.50;;;;;-3.17;73.18;99747.66;5061974;28;45334;-87
2022/12/13 01:18:08;;;;;;;;;24.00;22.75;;;;;-3.33;73.02;99711.97;5075029;28;46063;-87
2022/12/13 01:20:34;;;;;;;;;36.75;31.50;;;;;-2.45;72.64;99854.41;5074562;28;45267;-87
2022/12/13 01:23:00;;;;;;;;;23.25;18.00;;;;;-2.78;72.47;99793.34;5060018;28;45325;-87
2022/12/13 01:25:25;;;;;;;;;29.00;25.75;;;;;-3.21;72.58;99717.41;5059895;28;45265;-87
2022/12/13 01:27:50;;;;;;;;;22.25;19.00;;;;;-2.84;72.36;99785.44;5080677;28;46046;-87
2022/12/13 01:30:16;;;;;;;;;22.25;19.25;;;;;-2.83;72.87;99789.78;5061477;28;45348;-87
2022/12/13 01:32:41;;;;;;;;;23.00;22.50;;;;;-2.95;72.87;99771.41;5078082;28;45438;-87
2022/12/13 01:35:07;;;;;;;;;26.75;23.50;;;;;-3.33;72.94;99688.69;5063794;28;45364;-87
2022/12/13 01:37:32;;;;;;;;;21.00;16.50;;;;;-2.94;72.56;99755.91;5061598;28;48069;-88
2022/12/13 01:39:57;;;;;;;;;7.75;6.00;;;;;-2.55;73.04;99836.94;5080469;28;45391;-86
2022/12/13 01:42:23;;;;;;;;;22.50;19.00;;;;;-2.99;72.66;99747.19;5060212;28;45395;-87
2022/12/13 01:44:54;;;;;;;;;25.25;23.50;;;;;-2.49;72.45;99837.06;5080181;28;45433;-88
2022/12/13 01:47:32;;;;;;;;;27.25;22.25;;;;;-2.45;72.38;99849.22;5060398;28;47728;-87
2022/12/13 01:50:04;;;;;;;;;29.50;26.25;;;;;-3.31;72.80;99699.94;5059825;28;46010;-87
2022/12/13 01:52:32;;;;;;;;;26.75;23.75;;;;;-2.47;72.32;99832.81;5079776;28;45553;-87
2022/12/13 01:55:00;;;;;;;;;22.00;18.50;;;;;-3.34;72.67;99698.19;5062231;28;45549;-87
2022/12/13 01:57:26;;;;;;;;;28.75;20.25;;;;;-2.46;72.63;99844.03;5084450;28;45602;-88
2022/12/13 01:59:53;;;;;;;;;25.00;19.50;;;;;-3.77;72.33;99630.88;5061580;28;44931;-87
2022/12/13 02:02:19;;;;;;;;;33.25;26.75;;;;;-2.45;72.02;99841.47;5095319;28;44859;-87
2022/12/13 02:05:02;;;;;;;;;19.00;19.00;;;;;-2.46;72.03;99847.50;5071595;28;45280;-88
2022/12/13 02:07:32;;;;;;;;;17.75;15.75;;;;;-3.93;72.05;99584.91;5064508;28;45492;-87
2022/12/13 02:10:01;;;;;;;;;21.25;19.00;;;;;-3.15;72.32;99740.78;5068996;28;45509;-87
2022/12/13 02:12:31;;;;;;;;;21.25;18.25;;;;;-2.96;72.24;99760.19;5064074;28;45316;-87
2022/12/13 02:15:06;;;;;;;;;22.00;17.50;;;;;-3.46;71.66;99700.44;5077602;28;45425;-87
2022/12/13 02:17:51;;;;;;;;;25.25;20.50;;;;;-2.49;71.97;99852.59;5059805;28;48374;-87
2022/12/13 02:20:37;;;;;;;;;17.50;14.75;;;;;-2.47;71.82;99856.09;5060000;28;45616;-87
2022/12/13 02:23:08;;;;;;;;;33.25;23.50;;;;;-2.44;71.60;99856.16;5064708;28;45526;-87
2022/12/13 02:25:52;;;;;;;;;24.00;22.75;;;;;-2.39;71.56;99844.19;5070117;28;44953;-87
2022/12/13 02:28:35;;;;;;;;;21.25;17.50;;;;;-2.43;71.99;99842.38;5082259;28;46261;-88
2022/12/13 02:31:26;;;;;;;;;22.25;19.00;;;;;-2.54;72.10;99828.34;5082760;28;45414;-87
2022/12/13 02:34:02;;;;;;;;;21.00;18.75;;;;;-3.01;72.11;99758.34;5071997;28;45520;-87
2022/12/13 02:36:30;;;;;;;;;20.75;17.25;;;;;-2.48;72.15;99853.47;5070495;28;45485;-87
2022/12/13 02:39:01;;;;;;;;;21.00;19.25;;;;;-2.49;72.51;99850.00;5081707;28;45527;-88
2022/12/13 02:42:01;;;;;;;;;19.25;19.25;;;;;-3.20;71.99;99732.09;5081753;28;45435;-87
2022/12/13 02:44:57;;;;;;;;;16.25;14.00;;;;;-3.19;71.59;99723.47;5056517;28;45418;-87
2022/12/13 02:47:25;;;;;;;;;27.75;24.50;;;;;-3.21;71.76;99725.16;5058833;28;45332;-87
2022/12/13 02:49:56;;;;;;;;;23.75;22.75;;;;;-3.44;71.44;99676.41;5053009;28;47114;-87
2022/12/13 02:52:25;;;;;;;;;24.00;21.25;;;;;-3.44;71.84;99691.06;5068195;28;45353;-87
2022/12/13 02:54:54;;;;;;;;;29.25;19.50;;;;;-2.75;71.27;99798.59;5080915;28;45650;-87
2022/12/13 02:57:34;;;;;;;;;24.50;20.25;;;;;-3.27;71.31;99700.03;5059747;28;45548;-87
2022/12/13 03:00:08;;;;;;;;;22.25;19.50;;;;;-2.63;71.59;99821.25;5062316;28;47802;-87
2022/12/13 03:02:40;;;;;;;;;31.50;21.50;;;;;-2.53;71.98;99833.53;5086512;28;45198;-90
2022/12/13 03:08:10;;;;;;;;;24.25;19.75;;;;;-2.48;71.14;99825.88;5081977;28;45303;-89
2022/12/13 03:11:04;;;;;;;;;20.00;20.00;;;;;-3.76;71.64;99622.31;5066891;28;46855;-90
2022/12/13 03:13:54;;;;;;;;;27.00;23.25;;;;;-2.77;71.55;99795.06;5089171;28;45330;-91
2022/12/13 03:16:27;;;;;;;;;24.75;24.00;;;;;-3.34;71.54;99689.53;5069420;28;44816;-90
2022/12/13 03:18:56;;;;;;;;;18.25;16.75;;;;;-4.39;70.95;99519.28;5078407;28;44946;-90
2022/12/13 03:21:22;;;;;;;;;18.25;18.00;;;;;-2.95;71.26;99753.28;5072431;28;48311;-91
2022/12/13 03:23:47;;;;;;;;;24.25;20.00;;;;;-2.99;70.86;99751.47;5068127;28;45799;-90
2022/12/13 03:26:18;;;;;;;;;23.00;16.25;;;;;-3.44;71.44;99653.16;5082484;28;45399;-90
2022/12/13 03:28:43;;;;;;;;;19.25;16.00;;;;;-2.57;71.41;99808.44;5087428;28;45545;-89
2022/12/13 03:31:09;;;;;;;;;25.00;20.25;;;;;-3.25;71.52;99692.31;5090334;28;45411;-91
2022/12/13 03:33:35;;;;;;;;;19.25;17.50;;;;;-2.59;71.27;99799.78;5067695;28;45204;-90
2022/12/13 03:36:01;;;;;;;;;17.50;14.50;;;;;-2.55;71.07;99826.56;5086714;28;45272;-90
2022/12/13 03:38:28;;;;;;;;;21.50;19.75;;;;;-4.58;70.98;99467.28;5063811;28;45409;-90
2022/12/13 03:40:58;;;;;;;;;19.25;19.25;;;;;-2.71;70.74;99800.38;5062610;28;47115;-90
2022/12/13 03:43:24;;;;;;;;;21.50;18.50;;;;;-3.75;71.07;99621.47;5065491;28;45289;-90
2022/12/13 03:45:53;;;;;;;;;23.00;20.50;;;;;-2.69;71.81;99795.22;5083516;28;45268;-90
2022/12/13 03:48:19;;;;;;;;;22.75;20.50;;;;;-3.33;71.44;99689.56;5067393;28;45307;-90
2022/12/13 03:50:45;;;;;;;;;26.00;22.50;;;;;-3.96;71.13;99577.94;5064922;28;48194;-90
2022/12/13 03:53:11;;;;;;;;;22.25;20.25;;;;;-3.81;71.22;99623.91;5061837;28;45413;-90
2022/12/13 03:55:37;;;;;;;;;28.00;22.75;;;;;-3.03;70.72;99754.00;5061996;28;45409;-90
2022/12/13 03:58:03;;;;;;;;;19.00;19.00;;;;;-3.98;70.49;99583.91;5083863;28;45501;-90
2022/12/13 04:00:28;;;;;;;;;22.25;19.75;;;;;-3.25;70.78;99698.38;5091968;28;46923;-91
2022/12/13 04:02:54;;;;;;;;;28.00;22.25;;;;;-3.85;70.46;99614.34;5070289;28;45228;-90
2022/12/13 04:05:20;;;;;;;;;25.50;23.00;;;;;-4.06;70.73;99601.81;5085208;28;45295;-90
2022/12/13 04:07:47;;;;;;;;;20.00;18.50;;;;;-3.86;70.83;99628.09;5085859;28;45254;-89
2022/12/13 04:10:12;;;;;;;;;19.75;13.00;;;;;-2.69;70.31;99823.69;5086354;28;46461;-90
2022/12/13 04:15:22;;;;;;;;;21.50;21.50;;;;;-4.12;70.47;99561.22;5089112;28;44816;-90
2022/12/13 04:17:47;;;;;;;;;17.25;13.00;;;;;-2.69;70.15;99809.06;5081145;28;45415;-90
2022/12/13 04:20:14;;;;;;;;;21.25;21.00;;;;;-3.55;70.87;99672.72;5060351;28;46782;-90
2022/12/13 04:22:40;;;;;;;;;26.00;21.50;;;;;-3.49;70.91;99675.44;5082054;28;45347;-90
2022/12/13 04:25:06;;;;;;;;;19.75;15.50;;;;;-3.65;70.87;99655.25;5066734;28;45315;-90
2022/12/13 04:27:31;;;;;;;;;27.00;22.50;;;;;-4.37;70.44;99518.50;5067873;28;45406;-90
2022/12/13 04:29:57;;;;;;;;;20.50;20.25;;;;;-4.69;70.47;99471.28;5071402;28;46899;-89
2022/12/13 04:32:22;;;;;;;;;25.75;24.25;;;;;-3.63;70.78;99643.22;5079390;28;45210;-91
2022/12/13 04:34:48;;;;;;;;;38.00;23.00;;;;;-4.60;70.58;99489.59;5094498;28;44745;-89
2022/12/13 04:37:13;;;;;;;;;23.00;19.75;;;;;-4.11;70.41;99578.47;5092688;28;44881;-89
2022/12/13 04:39:39;;;;;;;;;28.25;25.00;;;;;-5.38;70.31;99354.50;5068999;28;48178;-90
2022/12/13 04:42:13;;;;;;;;;24.00;23.00;;;;;-4.07;70.87;99563.03;5066177;28;45630;-89
2022/12/13 04:44:38;;;;;;;;;29.50;22.75;;;;;-4.11;70.68;99559.53;5082523;28;45367;-91
2022/12/13 04:47:04;;;;;;;;;24.50;22.50;;;;;-4.31;71.27;99541.00;5064533;28;45303;-89
2022/12/13 04:49:30;;;;;;;;;29.25;26.25;;;;;-4.99;70.75;99428.50;5062778;28;47155;-89
2022/12/13 04:51:56;;;;;;;;;23.75;20.25;;;;;-3.56;70.51;99670.97;5065570;28;45262;-88
2022/12/13 04:54:22;;;;;;;;;22.50;20.75;;;;;-3.80;70.21;99635.97;5071887;28;44778;-90
2022/12/13 04:56:47;;;;;;;;;24.25;23.00;;;;;-4.01;70.68;99583.84;5070175;28;45565;-89
2022/12/13 04:59:12;;;;;;;;;24.00;21.25;;;;;-5.54;70.88;99336.09;5071178;28;46619;-89
2022/12/13 05:01:38;;;;;;;;;26.00;23.00;;;;;-3.49;70.35;99672.84;5068249;28;45341;-90
2022/12/13 05:04:03;;;;;;;;;31.75;28.00;;;;;-4.49;70.36;99503.59;5095748;27;45270;-90
2022/12/13 05:06:29;;;;;;;;;26.25;17.75;;;;;-5.03;70.87;99400.88;5080011;28;45414;-90
2022/12/13 05:08:55;;;;;;;;;32.00;28.50;;;;;-3.39;70.71;99689.44;5084218;27;46714;-89
2022/12/13 05:18:05;;;;;;;;;26.50;24.25;;;;;-2.96;71.10;99770.53;5080888;28;45324;-90
2022/12/13 05:20:33;;;;;;;;;28.75;24.00;;;;;-4.46;70.86;99518.28;5066605;28;47064;-91
2022/12/13 05:22:58;;;;;;;;;32.50;28.25;;;;;-3.13;71.27;99764.97;5070964;28;45342;-91
2022/12/13 05:25:24;;;;;;;;;38.00;27.75;;;;;-5.61;70.05;99311.03;5070575;28;45422;-90
2022/12/13 05:27:50;;;;;;;;;29.25;24.75;;;;;-4.23;70.60;99547.22;5071356;28;45382;-89
2022/12/13 05:30:16;;;;;;;;;27.75;22.75;;;;;-4.55;69.88;99503.47;5090090;28;47552;-90
2022/12/13 05:32:41;;;;;;;;;36.00;25.75;;;;;-4.94;70.16;99431.19;5078601;28;45408;-90
2022/12/13 05:35:07;;;;;;;;;32.25;27.00;;;;;-3.83;70.57;99604.03;5091779;28;45927;-91
2022/12/13 05:37:32;;;;;;;;;31.00;24.25;;;;;-2.95;70.46;99774.00;5076477;28;45633;-89
2022/12/13 05:39:58;;;;;;;;;32.75;23.50;;;;;-3.04;70.24;99743.63;5087202;28;47196;-90
2022/12/13 05:42:24;;;;;;;;;34.75;25.50;;;;;-2.92;70.62;99790.44;5067939;28;45389;-90
2022/12/13 05:44:51;;;;;;;;;20.25;14.25;;;;;-2.90;70.47;99798.22;5069779;28;45288;-90
2022/12/13 05:47:16;;;;;;;;;27.25;25.50;;;;;-2.99;70.35;99777.34;5068550;28;45264;-90
2022/12/13 05:49:42;;;;;;;;;25.25;20.25;;;;;-3.42;70.48;99702.28;5089684;28;46396;-89
2022/12/13 05:52:18;;;;;;;;;27.25;22.25;;;;;-2.94;70.91;99802.47;5093797;28;44955;-91
2022/12/13 05:54:44;;;;;;;;;30.75;23.25;;;;;-3.47;70.34;99709.94;5071819;28;45276;-89
2022/12/13 05:57:09;;;;;;;;;30.00;21.75;;;;;-4.39;70.80;99542.53;5092799;28;44884;-90
2022/12/13 05:59:35;;;;;;;;;36.00;25.25;;;;;-2.96;70.62;99803.25;5095920;27;47186;-90
2022/12/13 06:02:01;;;;;;;;;26.00;24.00;;;;;-3.66;70.35;99674.16;5086174;28;45501;-90
2022/12/13 06:04:26;;;;;;;;;28.50;22.50;;;;;-3.97;70.80;99614.06;5067470;28;45410;-91
2022/12/13 06:06:52;;;;;;;;;25.25;21.25;;;;;-4.16;70.66;99585.25;5093846;28;45535;-90
2022/12/13 06:09:19;;;;;;;;;34.75;28.25;;;;;-3.67;70.78;99682.78;5075688;28;47037;-90
2022/12/13 06:11:44;;;;;;;;;29.25;22.00;;;;;-4.91;70.45;99501.72;5068449;28;45269;-90
2022/12/13 06:14:09;;;;;;;;;34.75;30.50;;;;;-3.80;70.74;99682.47;5065726;28;45317;-89
2022/12/13 06:16:35;;;;;;;;;25.00;22.25;;;;;-4.07;70.95;99622.44;5090229;28;45244;-90
2022/12/13 06:19:00;;;;;;;;;32.25;25.25;;;;;-4.30;70.43;99595.25;5068006;28;46991;-89
2022/12/13 06:21:26;;;;;;;;;28.00;21.75;;;;;-4.03;70.44;99647.50;5068333;28;45276;-90
2022/12/13 06:23:52;;;;;;;;;20.25;20.25;;;;;-4.06;70.89;99627.63;5072728;28;45290;-91
2022/12/13 06:26:17;;;;;;;;;26.00;21.75;;;;;-3.95;70.43;99646.84;5092653;28;45407;-90
2022/12/13 06:28:43;;;;;;;;;21.75;17.25;;;;;-3.57;70.44;99705.38;5095965;28;45495;-89
2022/12/13 06:31:08;;;;;;;;;30.75;26.50;;;;;-3.06;70.84;99791.84;5066915;28;45374;-87
2022/12/13 06:33:35;;;;;;;;;20.25;16.50;;;;;-3.67;70.67;99693.13;5075247;28;45309;-89
2022/12/13 06:36:02;;;;;;;;;25.75;21.25;;;;;-3.01;70.85;99820.41;5075440;28;44864;-90
2022/12/13 06:38:28;;;;;;;;;28.50;23.50;;;;;-3.13;70.59;99759.78;5087151;28;47047;-90
2022/12/13 06:40:53;;;;;;;;;27.75;22.50;;;;;-3.68;70.17;99665.53;5086190;28;45206;-91
2022/12/13 06:43:23;;;;;;;;;38.50;25.75;;;;;-3.16;70.00;99745.94;5068113;28;45283;-90
2022/12/13 06:45:49;;;;;;;;;32.25;28.25;;;;;-3.82;70.17;99649.72;5068749;28;45613;-90
2022/12/13 06:48:14;;;;;;;;;27.25;26.50;;;;;-5.22;70.48;99404.72;5085111;28;45398;-90
2022/12/13 06:50:39;;;;;;;;;20.75;20.75;;;;;-2.81;70.87;99802.72;5067197;28;45462;-89
2022/12/13 06:53:05;;;;;;;;;28.00;25.50;;;;;-2.80;69.95;99795.00;5064552;28;45743;-89
2022/12/13 06:55:34;;;;;;;;;37.50;28.25;;;;;-4.22;70.35;99548.06;5087452;28;45669;-90
2022/12/13 06:57:59;;;;;;;;;35.75;31.75;;;;;-4.69;69.93;99476.44;5076041;28;47051;-90
2022/12/13 07:00:25;;;;;;;;;31.50;25.50;;;;;-3.82;70.11;99605.81;5090708;28;45206;-90
2022/12/13 07:02:52;;;;;;;;;33.75;25.25;;;;;-4.47;70.78;99512.25;5070671;28;45297;-90
2022/12/13 07:05:18;;;;;;;;;20.00;18.25;;;;;-2.79;69.90;99776.06;5080456;28;45656;-90
2022/12/13 07:07:46;;;;;;;;;33.00;28.25;;;;;-3.19;70.37;99707.94;5065612;28;45393;-91
2022/12/13 07:10:11;;;;;;;;;28.75;25.25;;;;;-4.01;70.08;99569.25;5083105;28;45341;-86
2022/12/13 07:12:39;;;;;;;;;24.75;22.00;;;;;-2.88;70.34;99770.69;5072817;28;44750;-91
2022/12/13 07:15:05;;;;;;;;;30.00;25.00;;;;;-4.62;70.12;99474.91;5080453;28;45332;-90
2022/12/13 07:17:31;;;;;;;;;35.50;29.25;;;;;-2.81;69.83;99784.63;5062225;28;47157;-90
2022/12/13 07:19:56;;;;;;;;;28.00;25.75;;;;;-3.97;70.26;99596.00;5064499;28;45279;-90
2022/12/13 07:22:22;;;;;;;;;26.75;25.50;;;;;-4.78;70.55;99448.75;5070954;28;45278;-89
2022/12/13 07:24:47;;;;;;;;;28.50;27.75;;;;;-4.68;70.48;99486.81;5087804;28;45528;-89
2022/12/13 07:27:13;;;;;;;;;26.75;25.25;;;;;-3.54;70.43;99683.91;5071590;28;46971;-90
2022/12/13 07:29:38;;;;;;;;;39.25;28.50;;;;;-2.78;69.72;99815.75;5069952;28;45284;-89
2022/12/13 07:32:04;;;;;;;;;29.75;27.50;;;;;-2.78;69.71;99818.31;5073423;28;45432;-91
2022/12/13 07:34:30;;;;;;;;;39.00;36.00;;;;;-4.77;69.69;99480.56;5066279;28;45531;-90
2022/12/13 07:36:55;;;;;;;;;33.00;30.75;;;;;-4.63;69.35;99494.69;5068298;28;48139;-89
2022/12/13 07:39:24;;;;;;;;;29.25;23.25;;;;;-3.92;69.76;99633.09;5067830;28;45374;-90
2022/12/13 07:41:53;;;;;;;;;34.50;27.75;;;;;-4.30;69.57;99540.16;5070640;28;45347;-90
2022/12/13 07:44:22;;;;;;;;;27.75;26.25;;;;;-2.82;69.80;99795.81;5066172;28;45449;-91
2022/12/13 07:46:48;;;;;;;;;34.50;29.00;;;;;-4.60;69.97;99484.44;5087207;28;47946;-88
2022/12/13 07:49:16;;;;;;;;;35.50;29.50;;;;;-2.74;70.33;99838.25;5065608;28;45403;-89
2022/12/13 07:51:42;;;;;;;;;31.50;25.25;;;;;-4.23;70.52;99593.66;5064551;28;45446;-89
2022/12/13 07:54:07;;;;;;;;;27.75;23.75;;;;;-3.85;70.21;99657.38;5088108;28;45544;-88
2022/12/13 07:56:34;;;;;;;;;31.25;27.50;;;;;-3.50;69.95;99709.00;5089151;28;45430;-89
2022/12/13 07:58:59;;;;;;;;;34.25;30.50;;;;;-3.12;70.28;99787.41;5088816;28;45383;-90
2022/12/13 08:01:25;;;;;;;;;34.00;31.50;;;;;-3.76;70.35;99655.88;5066856;28;45342;-89
2022/12/13 08:03:50;;;;;;;;;39.75;37.75;;;;;-4.00;70.41;99619.16;5068318;28;45315;-89
2022/12/13 08:06:18;;;;;;;;;29.25;26.00;;;;;-3.60;70.51;99679.47;5095948;27;48239;-89
2022/12/13 08:08:43;;;;;;;;;41.25;32.50;;;;;-3.08;70.20;99778.91;5086914;28;45294;-89
2022/12/13 08:11:14;;;;;;;;;34.75;25.50;;;;;-3.44;70.24;99711.72;5073722;28;45269;-89
2022/12/13 08:13:40;;;;;;;;;37.50;29.00;;;;;-2.57;70.61;99855.00;5070175;28;45495;-91
2022/12/13 08:16:07;;;;;;;;;29.50;29.50;;;;;-2.73;69.98;99824.50;5084875;28;47329;-89
2022/12/13 08:18:33;;;;;;;;;31.50;29.75;;;;;-3.26;69.85;99739.69;5066646;28;45213;-92
2022/12/13 08:21:03;;;;;;;;;32.75;29.00;;;;;-3.72;69.65;99643.03;5072457;28;45351;-89
2022/12/13 08:23:33;;;;;;;;;34.75;30.50;;;;;-3.36;69.86;99710.16;5056522;28;44985;-90
2022/12/13 08:26:02;;;;;;;;;38.25;33.00;;;;;-2.39;69.62;99880.41;5070249;28;47202;-90
2022/12/13 08:28:29;;;;;;;;;37.75;31.50;;;;;-2.37;69.65;99876.16;5064531;28;45403;-90
2022/12/13 08:31:45;;;;;;;;;28.00;23.25;;;;;-2.35;70.05;99864.13;5067349;28;45380;-91
2022/12/13 08:34:26;;;;;;;;;35.50;31.50;;;;;-2.30;69.48;99856.44;5078011;28;44948;-91
2022/12/13 08:36:53;;;;;;;;;27.75;23.00;;;;;-2.29;69.82;99865.06;5108982;27;46379;-91
2022/12/13 08:39:18;;;;;;;;;33.25;26.25;;;;;-3.46;70.03;99657.41;5108410;27;45412;-89
2022/12/13 08:41:43;;;;;;;;;24.75;22.00;;;;;-3.53;69.08;99660.69;5064672;28;45818;-90
2022/12/13 08:44:09;;;;;;;;;28.25;22.50;;;;;-2.64;69.46;99784.97;5098492;28;44922;-89
2022/12/13 08:46:45;;;;;;;;;36.00;28.25;;;;;-2.08;69.88;99869.81;5076831;28;47601;-90
2022/12/13 08:49:57;;;;;;;;;26.50;26.50;;;;;-2.23;68.43;99823.78;5127902;22;44960;-89
2022/12/13 08:52:33;;;;;;;;;33.00;25.00;;;;;-2.70;68.98;99755.56;4994148;28;45498;-91
2022/12/13 08:55:11;;;;;;;;;40.25;31.00;;;;;-1.98;69.17;99862.25;4995877;28;45297;-91
2022/12/13 08:57:46;;;;;;;;;35.00;34.00;;;;;-3.22;69.09;99692.38;4989867;28;46721;-93
2022/12/13 09:00:39;;;;;;;;;;;;;;;;;;;;;
2022/12/13 09:03:14;;;;;;;;;29.50;23.25;;;;;-1.84;68.87;99874.63;4986091;28;68646;-92
2022/12/13 09:05:41;;;;;;;;;36.25;29.75;;;;;-3.95;68.68;99501.34;4967340;28;45385;-92
2022/12/13 09:08:25;;;;;;;;;39.50;31.00;;;;;-1.75;69.39;99874.78;4972224;28;47319;-91
2022/12/13 09:11:01;;;;;;;;;43.25;34.75;;;;;-2.61;69.42;99718.66;4986373;28;45441;-92
2022/12/13 09:13:39;;;;;;;;;39.25;33.50;;;;;-3.64;68.59;99510.63;4969821;28;45499;-93
2022/12/13 09:16:17;;;;;;;;;37.25;32.75;;;;;-3.80;68.22;99460.34;4970928;28;45323;-92
2022/12/13 09:18:51;;;;;;;;;37.50;29.50;;;;;-2.30;68.29;99689.88;4975665;28;47591;-92
2022/12/13 09:21:38;;;;;;;;;;;;;;;;;;;;;
2022/12/13 09:24:28;;;;;;;;;35.00;32.50;;;;;-1.26;67.56;99844.53;4968469;28;68081;-92
2022/12/13 09:27:01;;;;;;;;;33.25;32.25;;;;;-1.66;68.37;99767.81;4981527;28;45358;-92
2022/12/13 09:29:30;;;;;;;;;35.25;30.75;;;;;-2.04;67.76;99680.81;5019986;28;46661;-91
2022/12/13 09:32:04;;;;;;;;;44.00;39.25;;;;;-1.08;67.60;99861.25;5023040;28;45474;-92
2022/12/13 09:34:37;;;;;;;;;54.75;40.50;;;;;-3.33;67.63;99456.94;5036441;28;45329;-92
2022/12/13 09:37:18;;;;;;;;;42.50;33.25;;;;;-0.98;67.83;99844.97;5054983;28;44852;-91
2022/12/13 09:42:56;;;;;;;;;40.75;35.00;;;;;-1.99;68.28;99657.59;5009454;28;44806;-90
2022/12/13 09:45:42;;;;;;;;;39.00;33.25;;;;;-2.05;67.10;99616.94;5002578;28;45237;-92
2022/12/13 09:48:16;;;;;;;;;43.25;36.25;;;;;-0.65;67.29;99848.03;5009281;28;45578;-92
2022/12/13 09:50:51;;;;;;;;;45.00;38.25;;;;;-1.88;67.72;99624.09;4994174;28;45490;-90
2022/12/13 09:53:23;;;;;;;;;42.00;36.25;;;;;-0.49;67.33;99856.91;5005553;28;45447;-90
2022/12/13 09:55:54;;;;;;;;;42.75;35.50;;;;;-0.41;66.90;99857.88;5023327;28;45358;-91
2022/12/13 09:58:27;;;;;;;;;36.75;32.25;;;;;-1.38;67.17;99649.00;4986221;28;45388;-92
2022/12/13 10:01:14;;;;;;;;;47.25;41.50;;;;;-1.39;67.76;99619.59;5011458;28;47034;-92
2022/12/13 10:03:47;;;;;;;;;38.25;34.00;;;;;-0.75;67.17;99704.28;4988168;28;44846;-91
2022/12/13 10:06:35;;;;;;;;;37.75;35.25;;;;;-1.37;66.58;99560.84;4992995;28;45436;-94
2022/12/13 11:46:39;;;;;;;;;37.00;33.50;;;;;2.73;62.46;99733.03;4966776;28;47858;-90
2022/12/13 11:49:16;;;;;;;;;34.00;31.25;;;;;2.05;63.26;99629.63;4962255;28;45404;-91
2022/12/13 11:55:04;;;;;;;;;31.00;27.25;;;;;1.93;63.97;99664.38;4946803;28;45318;-91
2022/12/13 11:57:43;;;;;;;;;36.50;27.75;;;;;0.29;63.90;99394.22;4928516;28;48099;-91
2022/12/13 12:00:35;;;;;;;;;51.25;43.00;;;;;1.83;64.91;99625.28;4926311;28;45560;-91
2022/12/13 12:03:15;;;;;;;;;48.00;39.00;;;;;3.06;62.52;99710.34;4928456;28;45473;-89
2022/12/13 12:05:47;;;;;;;;;34.25;32.50;;;;;2.07;62.42;99382.81;4929238;28;44875;-91
2022/12/13 12:08:30;;;;;;;;;38.25;35.75;;;;;5.06;60.29;99701.06;4946731;28;46152;-89
2022/12/13 12:11:21;;;;;;;;;36.75;31.00;;;;;4.60;60.19;99469.44;4945955;28;45566;-91
2022/12/13 12:14:30;;;;;;;;;39.00;33.75;;;;;6.18;57.52;99551.75;4932049;28;45794;-91
2022/12/13 12:16:59;;;;;;;;;38.75;32.00;;;;;6.41;57.33;99537.34;4908038;28;45378;-92
2022/12/13 12:19:30;;;;;;;;;33.50;31.00;;;;;6.75;57.94;99545.38;4913045;28;47306;-92
2022/12/13 12:21:58;;;;;;;;;34.50;31.00;;;;;8.05;59.01;99686.25;4950668;28;44827;-92
2022/12/13 12:24:27;;;;;;;;;41.50;33.00;;;;;8.52;58.33;99681.66;4943420;28;45372;-93
2022/12/13 12:27:08;;;;;;;;;35.00;30.00;;;;;9.06;56.36;99677.56;4946469;28;45585;-93
2022/12/13 12:30:07;;;;;;;;;32.00;28.25;;;;;9.52;57.50;99663.06;4948608;28;45485;-93
2022/12/13 12:33:14;;;;;;;;;35.75;32.50;;;;;10.13;56.30;99649.69;4941957;28;45324;-93
2022/12/13 12:36:28;;;;;;;;;31.75;31.00;;;;;10.64;57.06;99639.22;4981636;28;45305;-91
2022/12/13 12:39:38;;;;;;;;;36.00;29.75;;;;;10.66;55.49;99640.06;4932610;28;45514;-92
2022/12/13 12:42:18;;;;;;;;;33.50;28.00;;;;;10.55;55.82;99627.22;4906556;28;47704;-92
2022/12/13 12:44:50;;;;;;;;;32.00;24.25;;;;;10.59;57.21;99617.38;4900829;29;45273;-93
2022/12/13 12:47:28;;;;;;;;;37.50;35.75;;;;;10.79;55.96;99608.75;4906902;29;45369;-92
2022/12/13 12:50:14;;;;;;;;;36.00;30.00;;;;;10.94;54.76;99581.75;4914119;29;44879;-93
2022/12/13 12:52:58;;;;;;;;;29.00;26.50;;;;;11.07;52.04;99595.38;4908365;29;47230;-92
2022/12/13 12:55:33;;;;;;;;;37.75;30.50;;;;;10.97;53.82;99586.06;4907082;29;45385;-93
2022/12/13 12:58:20;;;;;;;;;32.75;28.50;;;;;10.90;52.46;99576.63;4907510;29;45433;-93
2022/12/13 13:01:10;;;;;;;;;36.00;31.25;;;;;9.72;51.23;99439.94;4911080;29;45403;-93
2022/12/13 13:03:41;;;;;;;;;33.25;28.75;;;;;9.46;53.05;99475.09;4898042;29;47285;-94
2022/12/13 13:06:33;;;;;;;;;26.00;23.75;;;;;8.14;57.19;99391.28;4900126;29;45409;-93
2022/12/13 13:09:08;;;;;;;;;33.50;29.50;;;;;8.77;53.64;99592.28;4910782;29;44691;-93
2022/12/13 13:11:40;;;;;;;;;33.00;30.75;;;;;6.89;55.66;99397.13;4888567;29;45289;-92
2022/12/13 13:14:35;;;;;;;;;31.00;28.00;;;;;7.27;57.30;99577.59;4888894;29;45612;-92
2022/12/13 13:17:17;;;;;;;;;28.25;24.50;;;;;6.62;59.35;99578.06;4945186;28;45253;-92
2022/12/13 13:19:47;;;;;;;;;32.25;30.75;;;;;5.72;59.86;99509.69;4956409;28;45255;-94
2022/12/13 13:22:51;;;;;;;;;31.75;24.25;;;;;5.84;59.43;99589.00;4941124;28;45608;-92
2022/12/13 13:25:27;;;;;;;;;41.75;33.00;;;;;5.37;59.26;99592.38;4958401;28;46828;-92
2022/12/13 13:28:13;;;;;;;;;35.25;29.25;;;;;3.73;59.22;99362.41;4963391;28;44818;-91
2022/12/13 13:31:11;;;;;;;;;24.50;20.50;;;;;3.52;59.36;99384.41;4959710;28;45445;-92
2022/12/13 13:33:42;;;;;;;;;33.00;27.75;;;;;4.41;60.01;99578.69;4962800;28;44994;-92
2022/12/13 13:36:07;;;;;;;;;28.50;25.25;;;;;4.18;59.41;99592.03;4952566;28;48205;-92
2022/12/13 13:38:50;;;;;;;;;26.50;23.00;;;;;3.61;60.19;99506.25;4945030;28;45256;-92